Time;durP1;ratioP1;P1;durP2;ratioP2;P2;SDS_P1;SDS_P2;PMS_P1;PMS_P2;Temp;Humidity;BMP_temperature;BMP_pressure;BME280_temperature;BME280_humidity;BME280_pressure;Samples;Min_cycle;Max_cycle;Signal;HPM_P1;HPM_P2
2022/12/09 00:02:03;;;;;;;39.53;23.15;;;;;;;1.77;90.98;99954.34;1699012;82;25896;-86
2022/12/09 00:04:30;;;;;;;40.10;22.48;;;;;;;1.76;91.00;99955.30;1721044;82;25896;-86
2022/12/09 00:06:56;;;;;;;40.98;23.67;;;;;;;1.77;91.08;99955.66;1713299;82;28281;-87
2022/12/09 00:09:23;;;;;;;38.92;22.67;;;;;;;1.77;91.01;99957.81;1722042;81;25836;-87
2022/12/09 00:11:51;;;;;;;41.85;22.27;;;;;;;1.78;91.03;99962.58;1720903;82;25874;-86
2022/12/09 00:14:18;;;;;;;43.28;23.27;;;;;;;1.79;91.01;99950.58;1705828;83;25773;-86
2022/12/09 00:16:44;;;;;;;46.50;23.70;;;;;;;1.78;90.88;99943.62;1725036;82;25836;-87
2022/12/09 00:19:10;;;;;;;36.25;22.45;;;;;;;1.79;90.98;99945.78;1715607;81;27597;-86
2022/12/09 00:21:37;;;;;;;39.35;23.38;;;;;;;1.79;90.96;99945.30;1728536;82;25772;-85
2022/12/09 00:24:06;;;;;;;40.10;23.27;;;;;;;1.81;91.01;99943.34;1727183;82;25786;-85
2022/12/09 00:26:34;;;;;;;38.33;23.32;;;;;;;1.80;90.90;99941.66;1709081;82;27008;-86
2022/12/09 00:29:00;;;;;;;40.35;23.52;;;;;;;1.80;90.87;99945.63;1731942;82;25959;-86
2022/12/09 00:31:31;;;;;;;36.15;22.30;;;;;;;1.81;90.88;99943.83;1702470;82;27428;-86
2022/12/09 00:34:01;;;;;;;40.83;23.35;;;;;;;1.80;90.84;99948.75;1700592;81;25778;-86
2022/12/09 00:36:28;;;;;;;39.63;23.05;;;;;;;1.80;90.84;99953.55;1721364;81;25786;-86
2022/12/09 00:38:57;;;;;;;39.08;23.10;;;;;;;1.78;90.77;99954.66;1711407;82;25915;-86
2022/12/09 00:41:25;;;;;;;38.35;22.27;;;;;;;1.74;90.77;99950.66;1677086;83;25820;-86
2022/12/09 00:43:51;;;;;;;44.38;24.37;;;;;;;1.71;90.81;99950.97;1692778;81;27458;-86
2022/12/09 00:46:18;;;;;;;41.70;23.05;;;;;;;1.70;90.96;99945.33;1711370;82;25869;-86
2022/12/09 00:48:46;;;;;;;46.95;24.77;;;;;;;1.69;91.04;99953.73;1711184;82;25294;-86
2022/12/09 00:51:17;;;;;;;40.65;23.98;;;;;;;1.71;91.12;99960.20;1712282;82;25901;-86
2022/12/09 00:53:44;;;;;;;44.85;24.37;;;;;;;1.70;91.10;99955.41;1698188;83;25945;-86
2022/12/09 00:56:10;;;;;;;40.50;24.30;;;;;;;1.71;91.14;99961.02;1719627;81;27446;-86
2022/12/09 00:58:37;;;;;;;42.65;24.77;;;;;;;1.73;91.07;99968.81;1698564;83;25990;-86
2022/12/09 01:01:03;;;;;;;41.70;24.43;;;;;;;1.73;91.03;99972.29;1718177;82;25994;-86
2022/12/09 01:03:30;;;;;;;45.08;23.83;;;;;;;1.73;90.89;99965.69;1720031;82;25917;-86
2022/12/09 01:05:56;;;;;;;42.35;24.15;;;;;;;1.71;90.70;99967.61;1720044;81;25327;-87
2022/12/09 01:08:24;;;;;;;40.15;24.02;;;;;;;1.70;90.76;99970.41;1721465;81;27207;-86
2022/12/09 01:10:51;;;;;;;43.85;24.63;;;;;;;1.68;90.77;99970.56;1688750;82;25780;-86
2022/12/09 01:13:17;;;;;;;44.05;24.57;;;;;;;1.68;90.78;99964.45;1711622;82;25549;-87
2022/12/09 01:15:43;;;;;;;45.73;23.95;;;;;;;1.68;90.67;99968.41;1712524;82;25816;-87
2022/12/09 01:18:11;;;;;;;43.05;23.38;;;;;;;1.68;90.66;99963.13;1731389;81;25782;-86
2022/12/09 01:20:38;;;;;;;46.10;26.12;;;;;;;1.65;90.63;99964.75;1719677;81;27441;-86
2022/12/09 01:23:04;;;;;;;42.38;23.87;;;;;;;1.61;90.59;99965.52;1685410;82;26124;-86
2022/12/09 01:25:30;;;;;;;42.45;24.52;;;;;;;1.61;90.67;99967.31;1711250;82;25870;-86
2022/12/09 01:27:57;;;;;;;42.90;23.57;;;;;;;1.62;90.72;99963.71;1726140;82;25819;-86
2022/12/09 01:30:23;;;;;;;45.65;24.63;;;;;;;1.60;90.78;99959.91;1742209;81;25867;-85
2022/12/09 01:32:49;;;;;;;40.75;24.67;;;;;;;1.61;90.94;99954.12;1715617;81;28302;-86
2022/12/09 01:35:16;;;;;;;44.23;25.00;;;;;;;1.63;91.03;99956.13;1734121;81;25765;-86
2022/12/09 01:37:42;;;;;;;46.10;24.82;;;;;;;1.62;91.17;99961.91;1723055;82;25876;-88
2022/12/09 01:40:15;;;;;;;44.25;25.75;;;;;;;1.62;91.22;99960.59;1711250;82;25889;-86
2022/12/09 01:42:42;;;;;;;46.77;25.20;;;;;;;1.61;91.31;99960.23;1732227;82;25850;-86
2022/12/09 01:45:29;;;;;;;50.92;26.55;;;;;;;1.61;91.49;99954.95;1724447;82;27453;-87
2022/12/09 01:48:04;;;;;;;44.75;24.30;;;;;;;1.62;91.67;99961.91;1707789;82;25874;-86
2022/12/09 01:50:34;;;;;;;46.70;25.30;;;;;;;1.63;91.69;99961.40;1711453;82;25887;-86
2022/12/09 01:53:06;;;;;;;46.33;25.27;;;;;;;1.62;91.81;99953.16;1713353;82;25932;-86
2022/12/09 01:55:34;;;;;;;44.63;25.32;;;;;;;1.62;92.04;99949.20;1710274;82;25970;-86
2022/12/09 01:58:02;;;;;;;44.85;25.27;;;;;;;1.63;92.11;99947.72;1725096;81;27456;-86
2022/12/09 02:00:29;;;;;;;45.63;26.15;;;;;;;1.64;92.12;99949.88;1718493;82;26028;-87
2022/12/09 02:02:59;;;;;;;44.05;26.05;;;;;;;1.65;92.17;99950.23;1712431;81;26301;-87
2022/12/09 02:05:26;;;;;;;43.87;25.00;;;;;;;1.67;92.29;99954.88;1701340;82;26522;-86
2022/12/09 02:07:54;;;;;;;45.90;26.23;;;;;;;1.69;92.39;99947.64;1724919;82;25746;-86
2022/12/09 02:10:22;;;;;;;48.35;26.00;;;;;;;1.70;92.34;99942.21;1720181;81;27481;-87
2022/12/09 02:13:13;;;;;;;45.58;26.42;;;;;;;1.71;92.42;99946.50;1699989;82;25754;-86
2022/12/09 02:15:56;;;;;;;43.73;24.05;;;;;;;1.73;92.49;99950.33;1721751;82;26228;-86
2022/12/09 02:18:37;;;;;;;52.15;26.60;;;;;;;1.75;92.53;99942.61;1691711;82;25792;-86
2022/12/09 02:21:11;;;;;;;42.50;25.43;;;;;;;1.76;92.48;99939.45;1710975;82;25333;-87
2022/12/09 02:23:49;;;;;;;45.98;26.02;;;;;;;1.76;92.55;99936.82;1734093;81;27552;-85
2022/12/09 02:26:42;;;;;;;41.15;25.10;;;;;;;1.76;92.63;99940.30;1731811;82;25972;-86
2022/12/09 02:29:52;;;;;;;47.67;25.77;;;;;;;1.75;92.66;99941.30;1711245;81;25790;-86
2022/12/09 02:32:56;;;;;;;43.70;24.37;;;;;;;1.76;92.82;99936.82;1728363;82;25820;-87
2022/12/09 02:35:36;;;;;;;45.03;25.50;;;;;;;1.76;92.81;99940.30;1716309;81;26355;-85
2022/12/09 02:38:14;;;;;;;46.15;25.57;;;;;;;1.79;92.93;99950.58;1722904;82;27470;-86
2022/12/09 02:41:07;;;;;;;47.75;26.80;;;;;;;1.80;92.95;99950.91;1727752;82;25352;-86
2022/12/09 02:43:42;;;;;;;45.00;27.20;;;;;;;1.81;92.97;99942.02;1710872;82;26422;-86
2022/12/09 02:46:11;;;;;;;44.83;26.93;;;;;;;1.82;92.96;99944.98;1711252;82;25850;-85
2022/12/09 02:48:41;;;;;;;43.80;25.85;;;;;;;1.83;92.94;99940.55;1722814;82;25781;-86
2022/12/09 02:51:13;;;;;;;46.20;26.87;;;;;;;1.83;92.91;99936.10;1704397;82;27467;-86
2022/12/09 02:53:41;;;;;;;48.30;27.90;;;;;;;1.85;92.89;99939.42;1724550;82;25908;-86
2022/12/09 02:56:11;;;;;;;47.05;28.27;;;;;;;1.85;92.89;99946.02;1735770;81;25527;-86
2022/12/09 02:58:37;;;;;;;49.85;28.05;;;;;;;1.86;92.94;99941.07;1724652;81;25843;-87
2022/12/09 03:01:04;;;;;;;45.90;26.95;;;;;;;1.87;92.95;99946.70;1736958;81;25884;-86
2022/12/09 03:03:33;;;;;;;49.63;28.52;;;;;;;1.89;92.89;99944.75;1724588;82;27475;-86
2022/12/09 03:06:12;;;;;;;50.52;27.77;;;;;;;1.90;92.92;99952.19;1736365;82;25340;-87
2022/12/09 03:08:50;;;;;;;45.65;25.52;;;;;;;1.91;92.92;99946.75;1722866;82;25926;-86
2022/12/09 03:11:19;;;;;;;45.92;26.15;;;;;;;1.90;92.78;99950.88;1727161;81;26511;-86
2022/12/09 03:14:09;;;;;;;44.88;26.17;;;;;;;1.90;92.84;99944.27;1724047;82;25740;-86
2022/12/09 03:16:54;;;;;;;50.20;28.85;;;;;;;1.88;92.83;99954.15;1730451;81;27693;-86
2022/12/09 03:19:25;;;;;;;50.67;27.50;;;;;;;1.89;92.94;99946.55;1721893;81;26074;-85
2022/12/09 03:21:56;;;;;;;45.67;26.30;;;;;;;1.90;93.01;99947.75;1709019;82;26403;-86
2022/12/09 03:24:31;;;;;;;49.25;29.10;;;;;;;1.92;93.04;99942.31;1711576;82;26596;-86
2022/12/09 03:27:02;;;;;;;47.75;29.12;;;;;;;1.94;93.03;99940.34;1737070;82;25844;-85
2022/12/09 03:29:31;;;;;;;47.20;27.93;;;;;;;1.94;93.03;99941.67;1712603;82;27473;-86
2022/12/09 03:31:58;;;;;;;49.50;28.38;;;;;;;1.97;93.08;99938.23;1722529;82;25921;-86
2022/12/09 03:34:32;;;;;;;46.10;26.60;;;;;;;2.00;92.99;99937.11;1691789;82;25903;-86
2022/12/09 03:37:01;;;;;;;47.08;26.85;;;;;;;2.03;92.87;99940.28;1723699;81;25848;-85
2022/12/09 03:39:31;;;;;;;50.38;27.77;;;;;;;2.06;92.76;99934.70;1731566;82;25777;-86
2022/12/09 03:42:00;;;;;;;;;;;;;;;2.08;92.64;99927.95;1729606;81;27476;-87
2022/12/09 03:44:48;;;;;;;47.62;27.27;;;;;;;2.08;92.38;99934.06;1729892;82;25744;-86
2022/12/09 03:47:14;;;;;;;44.05;26.45;;;;;;;2.05;92.12;99929.06;1717213;82;25765;-85
2022/12/09 03:49:41;;;;;;;45.85;26.42;;;;;;;2.03;91.98;99927.06;1711186;82;26350;-85
2022/12/09 03:52:12;;;;;;;49.27;27.22;;;;;;;2.05;91.83;99932.23;1711572;82;25909;-85
2022/12/09 03:54:49;;;;;;;49.08;27.02;;;;;;;2.04;91.67;99926.59;1722695;82;27707;-85
2022/12/09 03:57:17;;;;;;;42.03;25.97;;;;;;;2.04;91.49;99926.11;1722550;81;25592;-85
2022/12/09 03:59:52;;;;;;;40.50;25.72;;;;;;;2.04;91.34;99927.91;1725163;82;26039;-86
2022/12/09 04:02:18;;;;;;;43.30;25.48;;;;;;;2.03;91.21;99923.11;1724301;82;25792;-86
2022/12/09 04:04:44;;;;;;;47.23;26.90;;;;;;;2.03;91.05;99920.47;1741233;81;25923;-86
2022/12/09 04:07:11;;;;;;;41.35;26.40;;;;;;;2.04;90.93;99919.98;1738543;81;27690;-86
2022/12/09 04:09:39;;;;;;;44.15;26.00;;;;;;;2.02;90.76;99925.91;1711006;82;26372;-85
2022/12/09 04:12:06;;;;;;;47.03;27.30;;;;;;;2.03;90.79;99932.87;1727427;82;25784;-85
2022/12/09 04:14:32;;;;;;;49.85;27.73;;;;;;;2.02;90.72;99934.67;1712752;82;25914;-86
2022/12/09 04:16:59;;;;;;;47.38;27.00;;;;;;;2.01;90.72;99932.19;1726724;82;25276;-85
2022/12/09 04:19:25;;;;;;;46.37;26.97;;;;;;;2.00;90.75;99931.34;1720538;81;27440;-86
2022/12/09 04:21:52;;;;;;;49.80;27.82;;;;;;;2.00;90.77;99930.02;1725216;82;25766;-86
2022/12/09 04:24:18;;;;;;;48.02;26.62;;;;;;;2.02;90.87;99932.51;1714796;82;25849;-85
2022/12/09 04:26:45;;;;;;;47.62;28.75;;;;;;;2.03;90.90;99923.63;1717287;82;26001;-86
2022/12/09 04:29:12;;;;;;;44.42;28.45;;;;;;;2.02;90.89;99923.27;1712584;82;26377;-86
2022/12/09 04:31:38;;;;;;;46.30;26.62;;;;;;;2.03;90.82;99917.83;1713104;82;28394;-87
2022/12/09 04:34:04;;;;;;;48.65;28.15;;;;;;;2.03;90.75;99920.47;1734087;82;25750;-85
2022/12/09 04:36:31;;;;;;;50.45;28.75;;;;;;;2.01;90.57;99916.34;1734418;81;25972;-86
2022/12/09 04:38:58;;;;;;;50.08;28.35;;;;;;;1.99;90.37;99926.22;1703544;81;25783;-86
2022/12/09 04:41:24;;;;;;;48.20;28.23;;;;;;;1.96;90.29;99925.19;1717674;82;26140;-85
2022/12/09 04:43:51;;;;;;;50.05;29.63;;;;;;;1.94;90.01;99926.66;1713523;82;27472;-86
2022/12/09 04:46:17;;;;;;;47.73;27.45;;;;;;;1.91;89.92;99929.59;1723917;82;25798;-86
2022/12/09 04:48:44;;;;;;;47.50;28.95;;;;;;;1.90;89.92;99937.66;1735422;82;26577;-86
2022/12/09 04:51:13;;;;;;;46.73;27.32;;;;;;;1.87;89.78;99934.83;1708069;82;26986;-85
2022/12/09 04:53:40;;;;;;;48.42;27.82;;;;;;;1.86;89.73;99935.79;1733443;82;25316;-85
2022/12/09 04:56:20;;;;;;;45.35;27.13;;;;;;;1.83;89.54;99935.27;1696047;81;28311;-86
2022/12/09 04:58:48;;;;;;;47.13;27.02;;;;;;;1.80;89.39;99935.06;1718664;82;25313;-86
2022/12/09 05:01:18;;;;;;;48.13;27.98;;;;;;;1.78;89.23;99929.58;1725512;81;25890;-86
2022/12/09 05:03:50;;;;;;;52.35;27.70;;;;;;;1.75;89.20;99935.17;1726917;82;25929;-87
2022/12/09 05:06:18;;;;;;;51.23;27.25;;;;;;;1.72;89.17;99931.02;1725291;81;25997;-86
2022/12/09 05:08:45;;;;;;;49.05;27.82;;;;;;;1.70;89.20;99934.77;1711053;82;27428;-86
2022/12/09 05:11:13;;;;;;;44.65;25.75;;;;;;;1.68;89.17;99937.56;1714180;82;25906;-85
2022/12/09 05:13:39;;;;;;;49.38;26.93;;;;;;;1.67;89.25;99935.89;1715519;82;26358;-86
2022/12/09 05:16:11;;;;;;;48.02;27.30;;;;;;;1.67;89.25;99939.84;1721714;82;26538;-85
2022/12/09 05:18:38;;;;;;;50.23;28.25;;;;;;;1.65;89.24;99947.59;1719255;82;25766;-85
2022/12/09 05:21:10;;;;;;;49.13;26.65;;;;;;;1.63;89.39;99942.44;1724621;81;27467;-86
2022/12/09 05:23:38;;;;;;;46.68;26.62;;;;;;;1.62;89.50;99950.03;1721186;82;25773;-85
2022/12/09 05:26:08;;;;;;;49.27;28.05;;;;;;;1.63;89.62;99944.24;1717844;82;26090;-86
2022/12/09 05:28:35;;;;;;;52.08;27.58;;;;;;;1.63;89.65;99945.56;1720113;82;25905;-85
2022/12/09 05:31:09;;;;;;;45.78;26.48;;;;;;;1.62;89.65;99952.67;1724151;81;25731;-84
2022/12/09 05:33:36;;;;;;;46.90;27.35;;;;;;;1.63;89.63;99956.13;1722678;81;27539;-85
2022/12/09 05:36:03;;;;;;;48.28;27.05;;;;;;;1.63;89.59;99956.95;1716724;81;25915;-85
2022/12/09 05:38:29;;;;;;;49.67;27.80;;;;;;;1.62;89.48;99952.67;1718251;82;26438;-86
2022/12/09 05:40:59;;;;;;;49.50;28.87;;;;;;;1.61;89.51;99957.59;1723773;81;25795;-87
2022/12/09 05:43:25;;;;;;;47.33;27.42;;;;;;;1.60;89.61;99949.35;1720811;81;26380;-84
2022/12/09 05:45:52;;;;;;;48.92;29.00;;;;;;;1.61;89.67;99954.95;1713872;82;27445;-85
2022/12/09 05:48:18;;;;;;;47.90;27.50;;;;;;;1.61;89.66;99956.76;1718714;81;26094;-85
2022/12/09 05:50:44;;;;;;;53.50;29.18;;;;;;;1.61;89.76;99954.12;1721519;82;25602;-85
2022/12/09 05:53:10;;;;;;;47.50;28.12;;;;;;;1.62;89.83;99958.44;1717532;82;25896;-86
2022/12/09 05:55:40;;;;;;;48.02;27.35;;;;;;;1.62;89.87;99959.27;1730299;82;25821;-85
2022/12/09 05:58:06;;;;;;;48.28;27.90;;;;;;;1.63;90.00;99957.44;1730194;81;27702;-85
2022/12/09 06:00:33;;;;;;;48.35;29.55;;;;;;;1.63;90.12;99954.80;1727610;82;25843;-85
2022/12/09 06:02:59;;;;;;;49.93;28.35;;;;;;;1.64;90.23;99955.16;1727289;81;25791;-85
2022/12/09 06:05:25;;;;;;;48.75;30.30;;;;;;;1.64;90.28;99961.28;1725055;82;25857;-85
2022/12/09 06:07:51;;;;;;;55.38;32.13;;;;;;;1.66;90.42;99953.20;1723429;82;25803;-86
2022/12/09 06:10:18;;;;;;;51.77;29.85;;;;;;;1.67;90.57;99955.69;1718163;82;27460;-84
2022/12/09 06:12:44;;;;;;;56.15;30.35;;;;;;;1.69;90.57;99961.66;1718252;82;26487;-85
2022/12/09 06:15:10;;;;;;;53.75;31.42;;;;;;;1.70;90.56;99962.01;1720765;82;25817;-86
2022/12/09 06:17:37;;;;;;;53.02;28.77;;;;;;;1.69;90.64;99955.05;1716422;82;25923;-85
2022/12/09 06:20:04;;;;;;;48.40;29.07;;;;;;;1.71;90.72;99954.41;1722871;82;25799;-84
2022/12/09 06:22:30;;;;;;;52.65;30.97;;;;;;;1.73;90.75;99952.97;1729447;81;27456;-85
2022/12/09 06:24:57;;;;;;;52.67;29.50;;;;;;;1.76;90.80;99963.22;1727217;82;26402;-86
2022/12/09 06:27:23;;;;;;;53.63;30.00;;;;;;;1.76;90.78;99965.38;1726941;81;26284;-86
2022/12/09 06:29:49;;;;;;;50.75;30.12;;;;;;;1.77;90.71;99955.66;1725169;82;26628;-85
2022/12/09 06:32:15;;;;;;;51.75;29.65;;;;;;;1.79;90.71;99960.30;1730020;81;25825;-86
2022/12/09 06:34:42;;;;;;;51.83;31.33;;;;;;;1.81;90.78;99954.38;1730956;81;27612;-86
2022/12/09 06:37:08;;;;;;;50.45;28.75;;;;;;;1.82;90.81;99950.78;1719823;82;25906;-86
2022/12/09 06:39:34;;;;;;;51.42;30.60;;;;;;;1.83;90.83;99955.91;1712154;82;25946;-86
2022/12/09 06:42:03;;;;;;;58.45;31.20;;;;;;;1.84;90.78;99954.91;1721932;82;26545;-85
2022/12/09 06:44:29;;;;;;;48.52;30.30;;;;;;;1.85;90.72;99960.55;1714114;81;25784;-85
2022/12/09 06:46:55;;;;;;;53.60;31.40;;;;;;;1.85;90.73;99964.51;1719518;82;28279;-85
2022/12/09 06:49:21;;;;;;;55.95;31.15;;;;;;;1.83;90.66;99966.95;1720441;82;26017;-86
2022/12/09 06:51:48;;;;;;;51.88;31.07;;;;;;;1.79;90.64;99966.42;1719413;82;25816;-86
2022/12/09 06:54:15;;;;;;;58.00;33.23;;;;;;;1.77;90.69;99968.86;1712580;83;25932;-86
2022/12/09 06:56:41;;;;;;;56.68;33.30;;;;;;;1.76;90.84;99972.46;1729310;82;25951;-85
2022/12/09 06:59:09;;;;;;;54.03;32.85;;;;;;;1.76;90.94;99974.62;1714656;81;27566;-86
2022/12/09 07:01:36;;;;;;;58.87;32.95;;;;;;;1.76;91.10;99968.02;1714851;82;25893;-86
2022/12/09 07:04:04;;;;;;;55.33;32.23;;;;;;;1.77;91.12;99965.73;1722243;82;25798;-85
2022/12/09 07:06:37;;;;;;;57.38;33.38;;;;;;;1.78;91.23;99960.78;1725133;82;25888;-85
2022/12/09 07:09:16;;;;;;;62.43;35.35;;;;;;;1.82;91.33;99955.55;1720398;81;25791;-85
2022/12/09 07:11:44;;;;;;;63.48;34.40;;;;;;;1.83;91.39;99950.63;1719026;82;27641;-85
2022/12/09 07:14:11;;;;;;;55.65;33.67;;;;;;;1.85;91.35;99959.23;1735738;82;25797;-86
2022/12/09 07:16:37;;;;;;;54.88;32.40;;;;;;;1.87;91.43;99957.75;1702191;82;25836;-86
2022/12/09 07:19:04;;;;;;;60.88;31.23;;;;;;;1.89;91.46;99963.72;1715364;82;26492;-85
2022/12/09 07:21:31;;;;;;;56.37;31.75;;;;;;;1.91;91.44;99957.80;1724475;81;25729;-85
2022/12/09 07:24:00;;;;;;;55.15;32.90;;;;;;;1.93;91.49;99956.67;1711171;82;27464;-86
2022/12/09 07:26:28;;;;;;;55.40;31.60;;;;;;;1.96;91.47;99951.59;1712683;82;25765;-85
2022/12/09 07:28:54;;;;;;;56.85;32.83;;;;;;;1.98;91.47;99954.44;1729939;82;26054;-87
2022/12/09 07:31:25;;;;;;;57.38;31.73;;;;;;;1.99;91.52;99949.48;1724713;81;25755;-86
2022/12/09 07:33:53;;;;;;;54.15;30.35;;;;;;;2.01;91.47;99958.08;1726986;81;25839;-85
2022/12/09 07:36:22;;;;;;;57.98;31.50;;;;;;;2.04;91.52;99955.64;1736619;82;27538;-85
2022/12/09 07:38:54;;;;;;;52.05;31.07;;;;;;;2.05;91.48;99959.95;1717278;82;25913;-86
2022/12/09 07:41:21;;;;;;;53.85;30.27;;;;;;;2.07;91.40;99960.16;1723781;82;25896;-84
2022/12/09 07:43:47;;;;;;;51.35;30.15;;;;;;;2.09;91.88;99963.97;1721255;81;25865;-85
2022/12/09 07:46:16;;;;;;;51.58;30.37;;;;;;;2.12;92.02;99961.84;1724751;81;26331;-85
2022/12/09 07:48:42;;;;;;;59.38;31.95;;;;;;;2.16;91.83;99968.48;1733006;82;27631;-85
2022/12/09 07:51:09;;;;;;;54.77;31.95;;;;;;;2.19;91.67;99969.53;1734102;81;26140;-85
2022/12/09 07:53:37;;;;;;;56.35;32.05;;;;;;;2.20;91.47;99969.05;1722439;81;26308;-85
2022/12/09 07:56:07;;;;;;;54.88;31.45;;;;;;;2.19;91.41;99963.41;1723361;82;25779;-85
2022/12/09 07:58:34;;;;;;;58.13;33.40;;;;;;;2.19;91.44;99960.77;1722989;82;25848;-85
2022/12/09 08:01:10;;;;;;;57.38;33.58;;;;;;;2.21;91.46;99972.02;1724500;82;27454;-85
2022/12/09 08:03:38;;;;;;;70.70;37.85;;;;;;;2.23;91.50;99967.41;1722801;81;25849;-86
2022/12/09 08:06:05;;;;;;;59.20;32.35;;;;;;;2.24;91.49;99967.28;1720361;82;25806;-86
2022/12/09 08:08:32;;;;;;;70.45;38.05;;;;;;;2.25;91.40;99971.57;1721691;82;25793;-86
2022/12/09 08:11:17;;;;;;;122.50;70.25;;;;;;;2.25;91.43;99976.86;1723472;81;25846;-80
2022/12/09 08:13:44;;;;;;;62.88;36.75;;;;;;;2.26;91.41;99977.69;1718680;82;27468;-86
2022/12/09 08:16:13;;;;;;;55.85;32.28;;;;;;;2.27;91.42;99971.41;1726163;81;26088;-89
2022/12/09 08:18:41;;;;;;;58.52;33.48;;;;;;;2.27;91.42;99974.89;1704151;81;26112;-88
2022/12/09 08:21:12;;;;;;;56.50;32.20;;;;;;;2.29;91.46;99977.38;1721394;82;25896;-87
2022/12/09 08:23:39;;;;;;;58.05;33.02;;;;;;;2.29;91.50;99979.53;1716381;81;25769;-89
2022/12/09 08:26:07;;;;;;;61.95;34.75;;;;;;;2.32;91.55;99979.25;1736711;81;27462;-89
2022/12/09 08:28:34;;;;;;;54.05;31.82;;;;;;;2.34;91.48;99981.25;1725405;82;25510;-87
2022/12/09 08:31:08;;;;;;;58.55;33.10;;;;;;;2.35;91.57;99973.65;1717532;81;25319;-89
2022/12/09 08:33:35;;;;;;;53.00;31.70;;;;;;;2.38;91.57;99981.77;1732157;82;26238;-89
2022/12/09 08:36:05;;;;;;;53.35;32.75;;;;;;;2.46;92.54;99977.08;1712472;81;25320;-89
2022/12/09 08:38:31;;;;;;;53.97;30.27;;;;;;;2.49;91.95;99980.23;1718359;82;27576;-86
2022/12/09 08:40:58;;;;;;;58.35;32.42;;;;;;;2.53;92.03;99980.27;1729088;81;25750;-84
2022/12/09 08:43:24;;;;;;;61.30;33.50;;;;;;;2.55;91.89;99977.47;1729584;81;26467;-84
2022/12/09 08:45:50;;;;;;;53.13;33.15;;;;;;;2.56;91.61;99979.15;1730233;81;26962;-86
2022/12/09 08:48:17;;;;;;;59.08;33.50;;;;;;;2.56;91.49;99978.66;1723025;82;25850;-86
2022/12/09 08:50:43;;;;;;;55.88;32.30;;;;;;;2.57;91.38;99985.59;1738210;82;27438;-87
2022/12/09 08:53:09;;;;;;;54.55;32.40;;;;;;;2.58;91.40;99984.63;1722406;81;25858;-84
2022/12/09 08:55:38;;;;;;;57.70;31.82;;;;;;;2.58;91.38;99980.66;1735050;82;25740;-85
2022/12/09 08:58:04;;;;;;;58.60;31.97;;;;;;;2.62;91.43;99983.34;1726525;82;26579;-88
2022/12/09 09:00:30;;;;;;;52.62;32.38;;;;;;;2.62;91.32;99981.19;1723265;82;25413;-86
2022/12/09 09:02:57;;;;;;;54.53;31.33;;;;;;;2.63;91.36;99979.70;1719474;81;27559;-82
2022/12/09 09:05:23;;;;;;;55.80;33.95;;;;;;;2.65;91.46;99978.25;1728316;82;25762;-85
2022/12/09 09:07:49;;;;;;;53.98;32.50;;;;;;;2.64;91.41;99973.45;1714797;81;25315;-90
2022/12/09 09:10:16;;;;;;;60.00;32.95;;;;;;;2.67;91.43;99969.67;1718883;82;26333;-89
2022/12/09 09:12:42;;;;;;;61.23;35.85;;;;;;;2.68;91.47;99968.67;1691213;80;26249;-88
2022/12/09 09:15:09;;;;;;;64.67;37.20;;;;;;;2.68;91.36;99966.03;1732721;82;27607;-91
2022/12/09 09:17:35;;;;;;;63.98;37.45;;;;;;;2.71;91.46;99967.06;1707017;81;25889;-81
2022/12/09 09:20:02;;;;;;;58.42;34.50;;;;;;;2.72;91.32;99962.94;1693948;83;25875;-85
2022/12/09 09:22:28;;;;;;;61.63;36.25;;;;;;;2.75;91.37;99966.61;1723999;82;26546;-83
2022/12/09 09:24:55;;;;;;;58.92;36.17;;;;;;;2.79;91.40;99964.48;1714935;82;25783;-88
2022/12/09 09:27:24;;;;;;;58.28;34.35;;;;;;;2.81;91.43;99971.77;1727624;81;25997;-82
2022/12/09 09:29:50;;;;;;;59.30;35.38;;;;;;;2.83;91.32;99971.96;1734685;82;25297;-82
2022/12/09 09:32:16;;;;;;;60.67;36.85;;;;;;;2.84;91.29;99974.12;1724826;81;26380;-83
2022/12/09 09:34:44;;;;;;;58.80;34.92;;;;;;;2.85;91.31;99972.64;1722881;82;25751;-83
2022/12/09 09:37:10;;;;;;;59.48;35.08;;;;;;;2.88;91.42;99972.83;1717654;81;25772;-83
2022/12/09 09:39:37;;;;;;;60.17;35.50;;;;;;;2.90;91.33;99978.31;1741217;82;27513;-84
2022/12/09 09:42:05;;;;;;;62.03;37.73;;;;;;;2.92;91.32;99971.53;1723693;82;26239;-83
2022/12/09 09:44:46;;;;;;;60.48;35.28;;;;;;;2.91;91.08;99973.83;1718033;81;25941;-87
2022/12/09 09:47:26;;;;;;;63.17;37.98;;;;;;;2.90;91.08;99968.22;1735734;81;25964;-86
2022/12/09 09:50:07;;;;;;;59.30;33.73;;;;;;;2.90;91.05;99976.98;1722883;82;25790;-86
2022/12/09 09:52:37;;;;;;;61.98;34.75;;;;;;;2.85;90.78;99970.48;1730868;82;28295;-87
2022/12/09 09:55:16;;;;;;;67.62;37.63;;;;;;;2.84;90.90;99979.41;1724659;82;25785;-86
2022/12/09 09:58:06;;;;;;;58.92;34.88;;;;;;;2.83;90.90;99971.96;1717508;81;26076;-88
2022/12/09 10:00:38;;;;;;;59.80;34.88;;;;;;;2.85;91.05;99970.48;1702192;82;25796;-88
2022/12/09 10:03:25;;;;;;;56.53;33.60;;;;;;;2.85;91.18;99971.31;1710657;82;25929;-83
2022/12/09 10:06:00;;;;;;;58.38;33.63;;;;;;;2.87;91.12;99972.47;1714489;82;28258;-83
2022/12/09 10:08:46;;;;;;;54.38;33.80;;;;;;;2.87;91.13;99977.28;1707386;82;25879;-82
2022/12/09 10:11:54;;;;;;;58.60;35.90;;;;;;;2.88;91.07;99974.98;1698616;81;25322;-85
2022/12/09 10:14:57;;;;;;;66.82;37.67;;;;;;;2.86;91.12;99974.31;1712753;81;25935;-85
2022/12/09 10:17:47;;;;;;;59.42;34.73;;;;;;;2.90;91.18;99974.83;1733163;82;25904;-90
2022/12/09 10:20:19;;;;;;;65.10;38.70;;;;;;;2.90;90.90;99977.47;1715486;82;27484;-83
2022/12/09 10:22:54;;;;;;;64.50;37.28;;;;;;;2.90;90.98;99976.98;1730577;82;25967;-81
2022/12/09 10:25:24;;;;;;;58.58;33.70;;;;;;;2.93;91.13;99977.18;1717577;81;25962;-83
2022/12/09 10:28:05;;;;;;;65.62;36.70;;;;;;;2.89;90.71;99976.63;1730495;82;25839;-84
2022/12/09 10:30:32;;;;;;;61.55;36.33;;;;;;;2.87;90.61;99979.09;1731085;82;25809;-85
2022/12/09 10:32:58;;;;;;;69.25;39.50;;;;;;;2.88;90.94;99984.25;1725150;82;27436;-84
2022/12/09 10:35:29;;;;;;;61.45;38.17;;;;;;;2.93;91.02;99977.18;1737585;81;25336;-83
2022/12/09 10:38:11;;;;;;;61.30;36.03;;;;;;;2.97;91.78;99974.05;1735631;82;26105;-84
2022/12/09 10:40:57;;;;;;;77.20;44.53;;;;;;;3.04;91.44;99972.94;1728084;82;26582;-88
2022/12/09 10:46:22;;;;;;;64.37;38.88;;;;;;;3.14;91.22;99965.77;1724612;82;27721;-82
2022/12/09 10:48:54;;;;;;;70.35;40.98;;;;;;;3.20;91.05;99969.59;1729818;81;25879;-84
2022/12/09 10:51:26;;;;;;;66.60;40.30;;;;;;;3.22;90.77;99970.27;1711216;82;25362;-86
2022/12/09 10:54:02;;;;;;;67.17;40.17;;;;;;;3.23;90.69;99971.94;1700804;81;25842;-91
2022/12/09 10:56:38;;;;;;;72.20;45.58;;;;;;;3.25;90.64;99973.42;1713246;81;25777;-89
2022/12/09 10:59:24;;;;;;;68.83;40.78;;;;;;;3.26;90.60;99967.16;1711293;81;27472;-89
2022/12/09 11:01:58;;;;;;;68.50;38.17;;;;;;;3.29;90.67;99965.53;1721423;82;25766;-88
2022/12/09 11:04:29;;;;;;;67.55;38.17;;;;;;;3.31;90.60;99966.20;1712253;82;26208;-88
2022/12/09 11:06:59;;;;;;;;;;;;;;;3.33;90.31;99972.17;1718400;82;26015;-89
2022/12/09 11:09:35;;;;;;;72.42;40.58;;;;;;;3.36;90.51;99974.49;1732322;81;25494;-90
2022/12/09 11:12:06;;;;;;;72.92;40.63;;;;;;;3.38;90.37;99965.90;1693263;82;27480;-90
2022/12/09 11:14:35;;;;;;;;;;;;;;;3.40;90.50;99965.25;1726169;82;25345;-89
2022/12/09 11:17:15;;;;;;;70.57;38.78;;;;;;;3.45;90.57;99968.75;1736671;81;25958;-82
2022/12/09 11:19:45;;;;;;;68.83;40.50;;;;;;;3.47;90.76;99972.08;1733481;82;25821;-85
2022/12/09 11:22:27;;;;;;;69.62;40.33;;;;;;;3.51;90.84;99972.93;1722943;82;25788;-83
2022/12/09 11:24:55;;;;;;;70.08;40.03;;;;;;;3.51;90.43;99973.41;1724048;81;27474;-82
2022/12/09 11:27:32;;;;;;;71.80;41.30;;;;;;;3.49;90.12;99969.61;1729793;82;25770;-90
2022/12/09 11:30:16;;;;;;;68.60;39.00;;;;;;;3.49;90.14;99961.67;1712224;81;25868;-84
2022/12/09 11:33:04;;;;;;;68.42;40.08;;;;;;;3.44;89.62;99965.78;1724546;82;26748;-84
2022/12/09 11:35:44;;;;;;;66.82;38.85;;;;;;;3.34;89.49;99959.74;1726974;82;25836;-84
2022/12/09 11:38:33;;;;;;;68.10;38.95;;;;;;;3.33;89.96;99966.05;1727997;82;28229;-82
2022/12/09 11:43:54;;;;;;;71.00;39.78;;;;;;;3.20;89.88;99969.59;1710431;81;25875;-83
2022/12/09 11:46:28;;;;;;;73.97;40.80;;;;;;;3.13;89.65;99972.02;1731556;81;25501;-83
2022/12/09 11:49:15;;;;;;;80.70;46.18;;;;;;;3.10;90.10;99961.77;1732009;81;25885;-83